sensor_id;sensor_type;location;lat;lon;timestamp;P1;durP1;ratioP1;P2;durP2;ratioP2
17985;SDS011;9118;48.122;11.546;2022-08-19T00:01:38;6.00;;;5.40;;
17985;SDS011;9118;48.122;11.546;2022-08-19T00:04:06;5.50;;;5.00;;
17985;SDS011;9118;48.122;11.546;2022-08-19T00:06:35;6.83;;;6.23;;
17985;SDS011;9118;48.122;11.546;2022-08-19T00:09:06;5.93;;;5.43;;
17985;SDS011;9118;48.122;11.546;2022-08-19T00:11:34;5.90;;;5.40;;
17985;SDS011;9118;48.122;11.546;2022-08-19T00:14:02;7.28;;;6.13;;
17985;SDS011;9118;48.122;11.546;2022-08-19T00:16:31;6.43;;;5.60;;
17985;SDS011;9118;48.122;11.546;2022-08-19T00:18:58;6.70;;;6.10;;
17985;SDS011;9118;48.122;11.546;2022-08-19T00:21:26;7.17;;;6.47;;
17985;SDS011;9118;48.122;11.546;2022-08-19T00:23:53;8.23;;;6.77;;
17985;SDS011;9118;48.122;11.546;2022-08-19T00:26:24;7.80;;;6.70;;
17985;SDS011;9118;48.122;11.546;2022-08-19T00:28:52;7.43;;;6.60;;
17985;SDS011;9118;48.122;11.546;2022-08-19T00:31:25;7.77;;;6.97;;
17985;SDS011;9118;48.122;11.546;2022-08-19T00:33:52;8.13;;;7.33;;
17985;SDS011;9118;48.122;11.546;2022-08-19T00:36:19;8.50;;;7.70;;
17985;SDS011;9118;48.122;11.546;2022-08-19T00:38:46;8.00;;;7.20;;
17985;SDS011;9118;48.122;11.546;2022-08-19T00:41:17;8.57;;;7.60;;
17985;SDS011;9118;48.122;11.546;2022-08-19T00:43:57;8.00;;;7.20;;
17985;SDS011;9118;48.122;11.546;2022-08-19T00:46:25;7.53;;;6.83;;
17985;SDS011;9118;48.122;11.546;2022-08-19T00:48:53;9.23;;;7.57;;
17985;SDS011;9118;48.122;11.546;2022-08-19T00:51:21;8.40;;;7.23;;
17985;SDS011;9118;48.122;11.546;2022-08-19T00:53:51;8.43;;;7.57;;
17985;SDS011;9118;48.122;11.546;2022-08-19T00:56:20;9.43;;;7.50;;
17985;SDS011;9118;48.122;11.546;2022-08-19T00:58:48;8.07;;;7.23;;
17985;SDS011;9118;48.122;11.546;2022-08-19T01:01:17;8.43;;;7.53;;
17985;SDS011;9118;48.122;11.546;2022-08-19T01:03:44;9.25;;;8.35;;
17985;SDS011;9118;48.122;11.546;2022-08-19T01:06:11;8.80;;;7.90;;
17985;SDS011;9118;48.122;11.546;2022-08-19T01:08:42;10.57;;;8.70;;
17985;SDS011;9118;48.122;11.546;2022-08-19T01:11:09;9.60;;;8.53;;
17985;SDS011;9118;48.122;11.546;2022-08-19T01:13:36;17.90;;;9.83;;
17985;SDS011;9118;48.122;11.546;2022-08-19T01:16:04;8.80;;;7.90;;
17985;SDS011;9118;48.122;11.546;2022-08-19T01:18:36;11.50;;;10.30;;
17985;SDS011;9118;48.122;11.546;2022-08-19T01:21:08;11.00;;;9.80;;
17985;SDS011;9118;48.122;11.546;2022-08-19T01:23:41;11.37;;;9.73;;
17985;SDS011;9118;48.122;11.546;2022-08-19T01:26:09;13.10;;;10.47;;
17985;SDS011;9118;48.122;11.546;2022-08-19T01:28:37;10.77;;;9.67;;
17985;SDS011;9118;48.122;11.546;2022-08-19T01:31:05;12.60;;;10.77;;
17985;SDS011;9118;48.122;11.546;2022-08-19T01:33:32;11.47;;;10.27;;
17985;SDS011;9118;48.122;11.546;2022-08-19T01:36:04;13.17;;;10.50;;
17985;SDS011;9118;48.122;11.546;2022-08-19T01:38:34;11.33;;;9.40;;
17985;SDS011;9118;48.122;11.546;2022-08-19T01:41:05;10.30;;;9.20;;
17985;SDS011;9118;48.122;11.546;2022-08-19T01:43:32;11.53;;;9.40;;
17985;SDS011;9118;48.122;11.546;2022-08-19T01:46:00;10.90;;;9.30;;
17985;SDS011;9118;48.122;11.546;2022-08-19T01:48:32;9.90;;;8.90;;
17985;SDS011;9118;48.122;11.546;2022-08-19T01:51:00;9.93;;;8.93;;
17985;SDS011;9118;48.122;11.546;2022-08-19T01:53:27;9.73;;;8.73;;
17985;SDS011;9118;48.122;11.546;2022-08-19T01:55:55;10.97;;;9.37;;
17985;SDS011;9118;48.122;11.546;2022-08-19T01:58:24;9.77;;;8.57;;
17985;SDS011;9118;48.122;11.546;2022-08-19T02:00:55;8.97;;;8.17;;
17985;SDS011;9118;48.122;11.546;2022-08-19T02:03:23;9.60;;;8.60;;
17985;SDS011;9118;48.122;11.546;2022-08-19T02:05:53;8.97;;;8.00;;
17985;SDS011;9118;48.122;11.546;2022-08-19T02:08:22;9.77;;;8.40;;
17985;SDS011;9118;48.122;11.546;2022-08-19T02:10:49;9.60;;;8.40;;
17985;SDS011;9118;48.122;11.546;2022-08-19T02:13:16;9.53;;;8.60;;
17985;SDS011;9118;48.122;11.546;2022-08-19T02:15:45;9.93;;;8.93;;
17985;SDS011;9118;48.122;11.546;2022-08-19T02:18:12;9.70;;;8.20;;
17985;SDS011;9118;48.122;11.546;2022-08-19T02:20:39;10.77;;;7.70;;
17985;SDS011;9118;48.122;11.546;2022-08-19T02:23:07;8.67;;;7.77;;
17985;SDS011;9118;48.122;11.546;2022-08-19T02:25:35;12.30;;;7.90;;
17985;SDS011;9118;48.122;11.546;2022-08-19T02:28:03;8.97;;;8.07;;
17985;SDS011;9118;48.122;11.546;2022-08-19T02:30:30;8.00;;;7.20;;
17985;SDS011;9118;48.122;11.546;2022-08-19T02:32:58;8.60;;;7.33;;
17985;SDS011;9118;48.122;11.546;2022-08-19T02:35:25;8.10;;;7.30;;
17985;SDS011;9118;48.122;11.546;2022-08-19T02:37:52;8.20;;;7.20;;
17985;SDS011;9118;48.122;11.546;2022-08-19T02:40:37;7.77;;;7.03;;
17985;SDS011;9118;48.122;11.546;2022-08-19T02:43:04;11.18;;;7.68;;
17985;SDS011;9118;48.122;11.546;2022-08-19T02:45:33;8.37;;;7.57;;
17985;SDS011;9118;48.122;11.546;2022-08-19T02:48:03;7.53;;;6.83;;
17985;SDS011;9118;48.122;11.546;2022-08-19T02:50:30;8.53;;;6.97;;
17985;SDS011;9118;48.122;11.546;2022-08-19T02:52:57;7.73;;;7.03;;
17985;SDS011;9118;48.122;11.546;2022-08-19T02:55:24;9.03;;;7.33;;
17985;SDS011;9118;48.122;11.546;2022-08-19T02:57:51;8.17;;;7.37;;
17985;SDS011;9118;48.122;11.546;2022-08-19T03:00:19;7.73;;;6.93;;
17985;SDS011;9118;48.122;11.546;2022-08-19T03:02:46;8.47;;;7.07;;
17985;SDS011;9118;48.122;11.546;2022-08-19T03:05:15;7.97;;;7.17;;
17985;SDS011;9118;48.122;11.546;2022-08-19T03:07:42;9.13;;;7.50;;
17985;SDS011;9118;48.122;11.546;2022-08-19T03:10:10;8.27;;;7.47;;
17985;SDS011;9118;48.122;11.546;2022-08-19T03:12:37;8.27;;;7.47;;
17985;SDS011;9118;48.122;11.546;2022-08-19T03:15:05;7.43;;;6.67;;
17985;SDS011;9118;48.122;11.546;2022-08-19T03:17:34;8.33;;;7.53;;
17985;SDS011;9118;48.122;11.546;2022-08-19T03:20:02;9.00;;;7.07;;
17985;SDS011;9118;48.122;11.546;2022-08-19T03:22:31;8.03;;;7.17;;
17985;SDS011;9118;48.122;11.546;2022-08-19T03:24:58;9.00;;;7.63;;
17985;SDS011;9118;48.122;11.546;2022-08-19T03:27:25;8.30;;;7.50;;
17985;SDS011;9118;48.122;11.546;2022-08-19T03:29:52;7.63;;;6.90;;
17985;SDS011;9118;48.122;11.546;2022-08-19T03:32:19;7.90;;;7.17;;
17985;SDS011;9118;48.122;11.546;2022-08-19T03:34:46;7.93;;;7.13;;
17985;SDS011;9118;48.122;11.546;2022-08-19T03:37:15;7.93;;;7.13;;
17985;SDS011;9118;48.122;11.546;2022-08-19T03:39:44;8.55;;;7.65;;
17985;SDS011;9118;48.122;11.546;2022-08-19T03:42:11;7.50;;;6.67;;
17985;SDS011;9118;48.122;11.546;2022-08-19T03:44:38;9.47;;;8.20;;
17985;SDS011;9118;48.122;11.546;2022-08-19T03:47:07;8.23;;;6.63;;
17985;SDS011;9118;48.122;11.546;2022-08-19T03:49:34;7.67;;;6.97;;
17985;SDS011;9118;48.122;11.546;2022-08-19T03:52:01;8.00;;;7.23;;
17985;SDS011;9118;48.122;11.546;2022-08-19T03:54:32;8.67;;;7.50;;
17985;SDS011;9118;48.122;11.546;2022-08-19T03:57:00;7.53;;;6.83;;
17985;SDS011;9118;48.122;11.546;2022-08-19T03:59:29;8.10;;;7.30;;
17985;SDS011;9118;48.122;11.546;2022-08-19T04:01:59;8.00;;;7.07;;
17985;SDS011;9118;48.122;11.546;2022-08-19T04:04:27;9.13;;;7.60;;
17985;SDS011;9118;48.122;11.546;2022-08-19T04:06:54;7.97;;;7.10;;
17985;SDS011;9118;48.122;11.546;2022-08-19T04:09:22;8.03;;;7.20;;
17985;SDS011;9118;48.122;11.546;2022-08-19T04:11:50;9.40;;;7.17;;
17985;SDS011;9118;48.122;11.546;2022-08-19T04:14:21;7.87;;;6.83;;
17985;SDS011;9118;48.122;11.546;2022-08-19T04:16:50;7.37;;;6.67;;
17985;SDS011;9118;48.122;11.546;2022-08-19T04:19:18;9.20;;;7.43;;
17985;SDS011;9118;48.122;11.546;2022-08-19T04:21:47;13.57;;;8.77;;
17985;SDS011;9118;48.122;11.546;2022-08-19T04:24:16;10.57;;;8.27;;
17985;SDS011;9118;48.122;11.546;2022-08-19T04:26:44;9.53;;;8.07;;
17985;SDS011;9118;48.122;11.546;2022-08-19T04:29:13;10.77;;;7.87;;
17985;SDS011;9118;48.122;11.546;2022-08-19T04:31:44;10.50;;;8.77;;
17985;SDS011;9118;48.122;11.546;2022-08-19T04:34:12;18.60;;;8.47;;
17985;SDS011;9118;48.122;11.546;2022-08-19T04:36:41;9.87;;;8.27;;
17985;SDS011;9118;48.122;11.546;2022-08-19T04:39:13;10.40;;;8.43;;
17985;SDS011;9118;48.122;11.546;2022-08-19T04:41:41;12.07;;;9.20;;
17985;SDS011;9118;48.122;11.546;2022-08-19T04:44:26;11.27;;;8.83;;
17985;SDS011;9118;48.122;11.546;2022-08-19T04:46:56;11.47;;;9.00;;
17985;SDS011;9118;48.122;11.546;2022-08-19T04:49:24;10.53;;;8.60;;
17985;SDS011;9118;48.122;11.546;2022-08-19T04:51:52;11.17;;;8.73;;
17985;SDS011;9118;48.122;11.546;2022-08-19T04:54:20;11.97;;;9.37;;
17985;SDS011;9118;48.122;11.546;2022-08-19T04:56:48;9.53;;;8.23;;
17985;SDS011;9118;48.122;11.546;2022-08-19T04:59:17;9.53;;;8.50;;
17985;SDS011;9118;48.122;11.546;2022-08-19T05:01:59;9.63;;;8.20;;
17985;SDS011;9118;48.122;11.546;2022-08-19T05:04:27;11.27;;;7.93;;
17985;SDS011;9118;48.122;11.546;2022-08-19T05:06:56;9.57;;;8.57;;
17985;SDS011;9118;48.122;11.546;2022-08-19T05:09:23;11.37;;;9.47;;
17985;SDS011;9118;48.122;11.546;2022-08-19T05:11:50;10.93;;;9.17;;
17985;SDS011;9118;48.122;11.546;2022-08-19T05:14:19;13.63;;;8.70;;
17985;SDS011;9118;48.122;11.546;2022-08-19T05:16:46;11.17;;;8.60;;
17985;SDS011;9118;48.122;11.546;2022-08-19T05:19:15;11.17;;;9.27;;
17985;SDS011;9118;48.122;11.546;2022-08-19T05:22:00;13.63;;;8.80;;
17985;SDS011;9118;48.122;11.546;2022-08-19T05:24:44;11.73;;;8.37;;
17985;SDS011;9118;48.122;11.546;2022-08-19T05:27:11;8.73;;;7.80;;
17985;SDS011;9118;48.122;11.546;2022-08-19T05:29:38;11.77;;;8.50;;
17985;SDS011;9118;48.122;11.546;2022-08-19T05:32:06;10.40;;;7.83;;
17985;SDS011;9118;48.122;11.546;2022-08-19T05:34:37;15.47;;;9.13;;
17985;SDS011;9118;48.122;11.546;2022-08-19T05:37:05;8.80;;;7.90;;
17985;SDS011;9118;48.122;11.546;2022-08-19T05:39:33;9.53;;;8.40;;
17985;SDS011;9118;48.122;11.546;2022-08-19T05:42:03;10.13;;;8.50;;
17985;SDS011;9118;48.122;11.546;2022-08-19T05:44:33;11.67;;;9.53;;
17985;SDS011;9118;48.122;11.546;2022-08-19T05:47:02;10.73;;;8.67;;
17985;SDS011;9118;48.122;11.546;2022-08-19T05:49:31;11.50;;;8.97;;
17985;SDS011;9118;48.122;11.546;2022-08-19T05:52:03;12.17;;;10.00;;
17985;SDS011;9118;48.122;11.546;2022-08-19T05:54:31;11.87;;;9.97;;
17985;SDS011;9118;48.122;11.546;2022-08-19T05:57:00;10.40;;;9.30;;
17985;SDS011;9118;48.122;11.546;2022-08-19T05:59:27;10.43;;;9.33;;
17985;SDS011;9118;48.122;11.546;2022-08-19T06:01:54;12.83;;;9.73;;
17985;SDS011;9118;48.122;11.546;2022-08-19T06:04:25;13.00;;;9.73;;
17985;SDS011;9118;48.122;11.546;2022-08-19T06:06:53;13.80;;;10.70;;
17985;SDS011;9118;48.122;11.546;2022-08-19T06:09:23;14.07;;;10.37;;
17985;SDS011;9118;48.122;11.546;2022-08-19T06:11:51;15.87;;;11.60;;
17985;SDS011;9118;48.122;11.546;2022-08-19T06:14:21;14.93;;;12.03;;
17985;SDS011;9118;48.122;11.546;2022-08-19T06:16:54;14.47;;;11.43;;
17985;SDS011;9118;48.122;11.546;2022-08-19T06:19:27;14.17;;;12.20;;
17985;SDS011;9118;48.122;11.546;2022-08-19T06:21:55;15.20;;;11.57;;
17985;SDS011;9118;48.122;11.546;2022-08-19T06:24:26;14.83;;;12.00;;
17985;SDS011;9118;48.122;11.546;2022-08-19T06:26:55;16.00;;;11.97;;
17985;SDS011;9118;48.122;11.546;2022-08-19T06:29:24;16.00;;;12.17;;
17985;SDS011;9118;48.122;11.546;2022-08-19T06:31:58;15.37;;;13.03;;
17985;SDS011;9118;48.122;11.546;2022-08-19T06:34:26;16.20;;;13.20;;
17985;SDS011;9118;48.122;11.546;2022-08-19T06:36:55;17.00;;;13.90;;
17985;SDS011;9118;48.122;11.546;2022-08-19T06:39:26;19.17;;;13.40;;
17985;SDS011;9118;48.122;11.546;2022-08-19T06:41:55;18.40;;;14.37;;
17985;SDS011;9118;48.122;11.546;2022-08-19T06:44:26;16.93;;;13.40;;
17985;SDS011;9118;48.122;11.546;2022-08-19T06:46:54;16.77;;;14.03;;
17985;SDS011;9118;48.122;11.546;2022-08-19T06:49:22;19.67;;;13.93;;
17985;SDS011;9118;48.122;11.546;2022-08-19T06:51:50;16.30;;;13.67;;
17985;SDS011;9118;48.122;11.546;2022-08-19T06:54:17;16.73;;;13.57;;
17985;SDS011;9118;48.122;11.546;2022-08-19T06:56:46;19.07;;;14.87;;
17985;SDS011;9118;48.122;11.546;2022-08-19T06:59:14;16.30;;;13.60;;
17985;SDS011;9118;48.122;11.546;2022-08-19T07:01:44;19.73;;;14.50;;
17985;SDS011;9118;48.122;11.546;2022-08-19T07:04:14;17.73;;;14.97;;
17985;SDS011;9118;48.122;11.546;2022-08-19T07:06:43;20.57;;;13.47;;
17985;SDS011;9118;48.122;11.546;2022-08-19T07:09:11;16.80;;;12.70;;
17985;SDS011;9118;48.122;11.546;2022-08-19T07:11:43;17.10;;;13.77;;
17985;SDS011;9118;48.122;11.546;2022-08-19T07:14:11;16.50;;;13.13;;
17985;SDS011;9118;48.122;11.546;2022-08-19T07:16:41;16.33;;;13.87;;
17985;SDS011;9118;48.122;11.546;2022-08-19T07:19:07;19.53;;;15.33;;
17985;SDS011;9118;48.122;11.546;2022-08-19T07:21:35;26.27;;;14.30;;
17985;SDS011;9118;48.122;11.546;2022-08-19T07:24:02;18.00;;;13.90;;
17985;SDS011;9118;48.122;11.546;2022-08-19T07:26:31;19.43;;;14.90;;
17985;SDS011;9118;48.122;11.546;2022-08-19T07:28:59;21.03;;;15.83;;
17985;SDS011;9118;48.122;11.546;2022-08-19T07:31:28;19.10;;;14.83;;
17985;SDS011;9118;48.122;11.546;2022-08-19T07:33:55;19.50;;;16.02;;
17985;SDS011;9118;48.122;11.546;2022-08-19T07:36:25;19.83;;;16.03;;
17985;SDS011;9118;48.122;11.546;2022-08-19T07:38:57;20.10;;;16.57;;
17985;SDS011;9118;48.122;11.546;2022-08-19T07:41:26;19.30;;;15.67;;
17985;SDS011;9118;48.122;11.546;2022-08-19T07:43:57;21.40;;;16.40;;
17985;SDS011;9118;48.122;11.546;2022-08-19T07:46:30;19.47;;;16.20;;
17985;SDS011;9118;48.122;11.546;2022-08-19T07:48:57;20.03;;;16.37;;
17985;SDS011;9118;48.122;11.546;2022-08-19T07:51:25;20.77;;;16.17;;
17985;SDS011;9118;48.122;11.546;2022-08-19T07:53:53;21.80;;;16.80;;
17985;SDS011;9118;48.122;11.546;2022-08-19T07:56:21;22.53;;;17.60;;
17985;SDS011;9118;48.122;11.546;2022-08-19T07:58:49;20.80;;;16.83;;
17985;SDS011;9118;48.122;11.546;2022-08-19T08:01:19;20.97;;;16.67;;
17985;SDS011;9118;48.122;11.546;2022-08-19T08:03:54;22.33;;;17.77;;
17985;SDS011;9118;48.122;11.546;2022-08-19T08:06:51;21.40;;;16.67;;
17985;SDS011;9118;48.122;11.546;2022-08-19T08:09:37;24.53;;;18.67;;
17985;SDS011;9118;48.122;11.546;2022-08-19T08:12:07;23.93;;;19.13;;
17985;SDS011;9118;48.122;11.546;2022-08-19T08:14:39;25.73;;;19.57;;
17985;SDS011;9118;48.122;11.546;2022-08-19T08:17:10;25.97;;;20.53;;
17985;SDS011;9118;48.122;11.546;2022-08-19T08:19:40;25.63;;;21.27;;
17985;SDS011;9118;48.122;11.546;2022-08-19T08:22:08;27.33;;;21.03;;
17985;SDS011;9118;48.122;11.546;2022-08-19T08:24:56;28.40;;;21.70;;
17985;SDS011;9118;48.122;11.546;2022-08-19T08:27:27;28.97;;;21.43;;
17985;SDS011;9118;48.122;11.546;2022-08-19T08:29:56;27.23;;;21.30;;
17985;SDS011;9118;48.122;11.546;2022-08-19T08:32:23;25.93;;;21.00;;
17985;SDS011;9118;48.122;11.546;2022-08-19T08:34:52;24.97;;;20.33;;
17985;SDS011;9118;48.122;11.546;2022-08-19T08:37:19;24.97;;;21.03;;
17985;SDS011;9118;48.122;11.546;2022-08-19T08:39:47;29.90;;;22.57;;
17985;SDS011;9118;48.122;11.546;2022-08-19T08:42:17;27.45;;;21.50;;
17985;SDS011;9118;48.122;11.546;2022-08-19T08:44:52;25.40;;;21.33;;
17985;SDS011;9118;48.122;11.546;2022-08-19T08:47:25;26.87;;;21.83;;
17985;SDS011;9118;48.122;11.546;2022-08-19T08:50:01;27.07;;;21.47;;
17985;SDS011;9118;48.122;11.546;2022-08-19T08:52:33;28.97;;;22.60;;
17985;SDS011;9118;48.122;11.546;2022-08-19T08:55:05;32.67;;;21.73;;
17985;SDS011;9118;48.122;11.546;2022-08-19T08:57:35;29.13;;;22.20;;
17985;SDS011;9118;48.122;11.546;2022-08-19T09:00:11;28.47;;;22.17;;
17985;SDS011;9118;48.122;11.546;2022-08-19T09:02:43;32.57;;;25.70;;
17985;SDS011;9118;48.122;11.546;2022-08-19T09:05:12;29.97;;;23.17;;
17985;SDS011;9118;48.122;11.546;2022-08-19T09:07:41;28.57;;;21.67;;
17985;SDS011;9118;48.122;11.546;2022-08-19T09:10:17;28.20;;;21.67;;
17985;SDS011;9118;48.122;11.546;2022-08-19T09:12:52;26.63;;;21.13;;
17985;SDS011;9118;48.122;11.546;2022-08-19T09:15:28;26.17;;;20.20;;
17985;SDS011;9118;48.122;11.546;2022-08-19T09:18:00;28.67;;;20.53;;
17985;SDS011;9118;48.122;11.546;2022-08-19T09:20:30;25.43;;;19.70;;
17985;SDS011;9118;48.122;11.546;2022-08-19T09:22:57;25.63;;;20.17;;
17985;SDS011;9118;48.122;11.546;2022-08-19T09:25:25;26.97;;;20.97;;
17985;SDS011;9118;48.122;11.546;2022-08-19T09:27:53;29.10;;;21.13;;
17985;SDS011;9118;48.122;11.546;2022-08-19T09:30:22;27.03;;;20.87;;
17985;SDS011;9118;48.122;11.546;2022-08-19T09:32:52;29.05;;;20.15;;
17985;SDS011;9118;48.122;11.546;2022-08-19T09:35:20;32.27;;;24.63;;
17985;SDS011;9118;48.122;11.546;2022-08-19T09:37:49;31.85;;;23.45;;
17985;SDS011;9118;48.122;11.546;2022-08-19T09:40:17;24.93;;;19.47;;
17985;SDS011;9118;48.122;11.546;2022-08-19T09:42:45;29.03;;;22.23;;
17985;SDS011;9118;48.122;11.546;2022-08-19T09:45:13;25.77;;;19.20;;
17985;SDS011;9118;48.122;11.546;2022-08-19T09:47:41;24.73;;;19.02;;
17985;SDS011;9118;48.122;11.546;2022-08-19T09:50:10;26.50;;;20.45;;
17985;SDS011;9118;48.122;11.546;2022-08-19T09:52:38;24.90;;;19.27;;
17985;SDS011;9118;48.122;11.546;2022-08-19T09:55:09;24.97;;;18.80;;
17985;SDS011;9118;48.122;11.546;2022-08-19T09:57:37;27.63;;;20.33;;
17985;SDS011;9118;48.122;11.546;2022-08-19T10:00:07;30.50;;;21.43;;
17985;SDS011;9118;48.122;11.546;2022-08-19T10:02:35;28.40;;;20.47;;
17985;SDS011;9118;48.122;11.546;2022-08-19T10:05:04;28.20;;;20.53;;
17985;SDS011;9118;48.122;11.546;2022-08-19T10:07:48;32.10;;;22.57;;
17985;SDS011;9118;48.122;11.546;2022-08-19T10:10:18;29.25;;;21.25;;
17985;SDS011;9118;48.122;11.546;2022-08-19T10:12:45;25.97;;;19.70;;
17985;SDS011;9118;48.122;11.546;2022-08-19T10:15:12;27.70;;;20.13;;
17985;SDS011;9118;48.122;11.546;2022-08-19T10:17:40;28.03;;;19.40;;
17985;SDS011;9118;48.122;11.546;2022-08-19T10:20:07;24.23;;;18.80;;
17985;SDS011;9118;48.122;11.546;2022-08-19T10:22:35;24.70;;;18.90;;
17985;SDS011;9118;48.122;11.546;2022-08-19T10:25:03;25.23;;;18.93;;
17985;SDS011;9118;48.122;11.546;2022-08-19T10:27:33;23.67;;;17.70;;
17985;SDS011;9118;48.122;11.546;2022-08-19T10:30:00;23.55;;;17.02;;
17985;SDS011;9118;48.122;11.546;2022-08-19T10:32:27;20.20;;;16.37;;
17985;SDS011;9118;48.122;11.546;2022-08-19T10:34:55;22.10;;;19.07;;
17985;SDS011;9118;48.122;11.546;2022-08-19T10:37:22;24.30;;;17.57;;
17985;SDS011;9118;48.122;11.546;2022-08-19T10:39:49;22.13;;;17.25;;
17985;SDS011;9118;48.122;11.546;2022-08-19T10:42:16;20.58;;;16.60;;
17985;SDS011;9118;48.122;11.546;2022-08-19T10:44:45;19.50;;;15.83;;
17985;SDS011;9118;48.122;11.546;2022-08-19T10:47:13;18.97;;;15.67;;
17985;SDS011;9118;48.122;11.546;2022-08-19T10:49:41;21.23;;;16.65;;
17985;SDS011;9118;48.122;11.546;2022-08-19T10:52:26;16.70;;;14.45;;
17985;SDS011;9118;48.122;11.546;2022-08-19T10:54:59;18.67;;;14.33;;
17985;SDS011;9118;48.122;11.546;2022-08-19T10:57:44;15.02;;;12.93;;
17985;SDS011;9118;48.122;11.546;2022-08-19T11:00:13;15.57;;;13.07;;
17985;SDS011;9118;48.122;11.546;2022-08-19T11:02:40;13.70;;;12.25;;
17985;SDS011;9118;48.122;11.546;2022-08-19T11:05:08;13.30;;;11.60;;
17985;SDS011;9118;48.122;11.546;2022-08-19T11:07:39;14.00;;;12.00;;
17985;SDS011;9118;48.122;11.546;2022-08-19T11:10:08;13.75;;;12.23;;
17985;SDS011;9118;48.122;11.546;2022-08-19T11:12:37;14.37;;;12.70;;
17985;SDS011;9118;48.122;11.546;2022-08-19T11:15:05;17.07;;;12.40;;
17985;SDS011;9118;48.122;11.546;2022-08-19T11:17:37;17.92;;;12.73;;
17985;SDS011;9118;48.122;11.546;2022-08-19T11:20:08;14.77;;;12.43;;
17985;SDS011;9118;48.122;11.546;2022-08-19T11:22:37;13.07;;;10.93;;
17985;SDS011;9118;48.122;11.546;2022-08-19T11:25:05;14.87;;;12.77;;
17985;SDS011;9118;48.122;11.546;2022-08-19T11:27:33;14.93;;;12.97;;
17985;SDS011;9118;48.122;11.546;2022-08-19T11:30:05;16.40;;;13.03;;
17985;SDS011;9118;48.122;11.546;2022-08-19T11:32:33;15.13;;;12.93;;
17985;SDS011;9118;48.122;11.546;2022-08-19T11:35:04;15.20;;;12.87;;
17985;SDS011;9118;48.122;11.546;2022-08-19T11:37:36;13.43;;;11.70;;
17985;SDS011;9118;48.122;11.546;2022-08-19T11:40:04;11.30;;;8.35;;
17985;SDS011;9118;48.122;11.546;2022-08-19T11:42:32;5.53;;;4.97;;
17985;SDS011;9118;48.122;11.546;2022-08-19T11:45:16;6.60;;;6.00;;
17985;SDS011;9118;48.122;11.546;2022-08-19T11:47:43;6.72;;;6.13;;
17985;SDS011;9118;48.122;11.546;2022-08-19T11:50:12;7.17;;;6.30;;
17985;SDS011;9118;48.122;11.546;2022-08-19T11:52:40;6.55;;;5.95;;
17985;SDS011;9118;48.122;11.546;2022-08-19T11:55:09;6.60;;;5.90;;
17985;SDS011;9118;48.122;11.546;2022-08-19T11:57:36;6.00;;;5.40;;
17985;SDS011;9118;48.122;11.546;2022-08-19T12:00:03;5.05;;;4.65;;
17985;SDS011;9118;48.122;11.546;2022-08-19T12:02:35;5.20;;;4.70;;
17985;SDS011;9118;48.122;11.546;2022-08-19T12:05:02;5.60;;;5.10;;
17985;SDS011;9118;48.122;11.546;2022-08-19T12:07:32;4.67;;;4.27;;
17985;SDS011;9118;48.122;11.546;2022-08-19T12:09:59;4.23;;;3.83;;
17985;SDS011;9118;48.122;11.546;2022-08-19T12:12:26;3.20;;;3.00;;
17985;SDS011;9118;48.122;11.546;2022-08-19T12:14:54;2.57;;;2.37;;
17985;SDS011;9118;48.122;11.546;2022-08-19T12:17:23;2.67;;;2.47;;
17985;SDS011;9118;48.122;11.546;2022-08-19T12:19:51;2.40;;;2.20;;
17985;SDS011;9118;48.122;11.546;2022-08-19T12:22:18;2.50;;;2.20;;
17985;SDS011;9118;48.122;11.546;2022-08-19T12:24:47;2.33;;;2.20;;
17985;SDS011;9118;48.122;11.546;2022-08-19T12:27:17;2.10;;;2.00;;
17985;SDS011;9118;48.122;11.546;2022-08-19T12:29:44;2.80;;;2.60;;
17985;SDS011;9118;48.122;11.546;2022-08-19T12:32:11;2.40;;;2.30;;
17985;SDS011;9118;48.122;11.546;2022-08-19T12:34:38;2.60;;;2.40;;
17985;SDS011;9118;48.122;11.546;2022-08-19T12:37:06;2.70;;;2.50;;
17985;SDS011;9118;48.122;11.546;2022-08-19T12:39:34;2.20;;;1.90;;
17985;SDS011;9118;48.122;11.546;2022-08-19T12:42:04;2.43;;;2.23;;
17985;SDS011;9118;48.122;11.546;2022-08-19T12:44:32;2.42;;;2.22;;
17985;SDS011;9118;48.122;11.546;2022-08-19T12:46:59;3.07;;;2.10;;
17985;SDS011;9118;48.122;11.546;2022-08-19T12:49:29;2.20;;;2.10;;
17985;SDS011;9118;48.122;11.546;2022-08-19T12:51:58;2.20;;;2.08;;
17985;SDS011;9118;48.122;11.546;2022-08-19T12:54:26;2.10;;;2.00;;
17985;SDS011;9118;48.122;11.546;2022-08-19T12:56:53;2.53;;;2.20;;
17985;SDS011;9118;48.122;11.546;2022-08-19T12:59:22;3.57;;;2.40;;
17985;SDS011;9118;48.122;11.546;2022-08-19T13:01:50;2.53;;;2.20;;
17985;SDS011;9118;48.122;11.546;2022-08-19T13:04:17;2.70;;;2.50;;
17985;SDS011;9118;48.122;11.546;2022-08-19T13:06:44;2.67;;;2.47;;
17985;SDS011;9118;48.122;11.546;2022-08-19T13:09:11;2.25;;;2.10;;
17985;SDS011;9118;48.122;11.546;2022-08-19T13:11:38;3.03;;;2.73;;
17985;SDS011;9118;48.122;11.546;2022-08-19T13:14:05;2.57;;;2.37;;
17985;SDS011;9118;48.122;11.546;2022-08-19T13:16:34;2.83;;;2.57;;
17985;SDS011;9118;48.122;11.546;2022-08-19T13:19:02;2.40;;;2.20;;
17985;SDS011;9118;48.122;11.546;2022-08-19T13:21:30;2.40;;;2.20;;
17985;SDS011;9118;48.122;11.546;2022-08-19T13:23:57;2.33;;;2.15;;
17985;SDS011;9118;48.122;11.546;2022-08-19T13:26:24;2.57;;;2.37;;
17985;SDS011;9118;48.122;11.546;2022-08-19T13:28:51;2.63;;;2.42;;
17985;SDS011;9118;48.122;11.546;2022-08-19T13:31:39;2.70;;;2.50;;
17985;SDS011;9118;48.122;11.546;2022-08-19T13:34:27;2.57;;;2.37;;
17985;SDS011;9118;48.122;11.546;2022-08-19T13:36:56;2.55;;;2.35;;
17985;SDS011;9118;48.122;11.546;2022-08-19T13:39:24;2.67;;;2.47;;
17985;SDS011;9118;48.122;11.546;2022-08-19T13:41:52;2.67;;;2.47;;
17985;SDS011;9118;48.122;11.546;2022-08-19T13:44:19;2.80;;;2.60;;
17985;SDS011;9118;48.122;11.546;2022-08-19T13:46:48;3.90;;;2.90;;
17985;SDS011;9118;48.122;11.546;2022-08-19T13:49:17;3.17;;;2.87;;
17985;SDS011;9118;48.122;11.546;2022-08-19T13:51:45;2.97;;;2.70;;
17985;SDS011;9118;48.122;11.546;2022-08-19T13:54:12;3.10;;;2.90;;
17985;SDS011;9118;48.122;11.546;2022-08-19T13:56:40;3.37;;;3.10;;
17985;SDS011;9118;48.122;11.546;2022-08-19T13:59:08;3.67;;;3.38;;
17985;SDS011;9118;48.122;11.546;2022-08-19T14:01:35;3.80;;;3.50;;
17985;SDS011;9118;48.122;11.546;2022-08-19T14:04:04;3.93;;;3.63;;
17985;SDS011;9118;48.122;11.546;2022-08-19T14:06:31;3.90;;;3.60;;
17985;SDS011;9118;48.122;11.546;2022-08-19T14:08:58;3.60;;;3.30;;
17985;SDS011;9118;48.122;11.546;2022-08-19T14:11:27;4.13;;;3.80;;
17985;SDS011;9118;48.122;11.546;2022-08-19T14:13:54;4.00;;;3.70;;
17985;SDS011;9118;48.122;11.546;2022-08-19T14:16:21;4.07;;;3.77;;
17985;SDS011;9118;48.122;11.546;2022-08-19T14:18:52;3.83;;;3.53;;
17985;SDS011;9118;48.122;11.546;2022-08-19T14:21:21;4.03;;;3.73;;
17985;SDS011;9118;48.122;11.546;2022-08-19T14:23:53;3.92;;;3.60;;
17985;SDS011;9118;48.122;11.546;2022-08-19T14:26:21;4.20;;;3.90;;
17985;SDS011;9118;48.122;11.546;2022-08-19T14:28:49;4.03;;;3.72;;
17985;SDS011;9118;48.122;11.546;2022-08-19T14:31:17;4.03;;;3.72;;
17985;SDS011;9118;48.122;11.546;2022-08-19T14:33:49;3.88;;;3.58;;
17985;SDS011;9118;48.122;11.546;2022-08-19T14:36:17;4.22;;;3.67;;
17985;SDS011;9118;48.122;11.546;2022-08-19T14:38:49;3.60;;;3.30;;
17985;SDS011;9118;48.122;11.546;2022-08-19T14:41:18;3.85;;;3.55;;
17985;SDS011;9118;48.122;11.546;2022-08-19T14:43:49;4.00;;;3.70;;
17985;SDS011;9118;48.122;11.546;2022-08-19T14:46:19;3.80;;;3.50;;
17985;SDS011;9118;48.122;11.546;2022-08-19T14:48:47;3.63;;;3.33;;